createdAt,value
2019-05-06T00:00:01.858Z,18.34
2019-05-06T00:02:34.168Z,18.26
2019-05-06T00:05:07.028Z,18.31
2019-05-06T00:07:39.316Z,18.31
2019-05-06T00:10:26.343Z,18.30
2019-05-06T00:12:58.807Z,18.25
2019-05-06T00:15:31.001Z,18.25
2019-05-06T00:18:04.489Z,18.29
2019-05-06T00:20:37.413Z,18.26
2019-05-06T00:23:15.101Z,18.19
2019-05-06T00:26:06.577Z,18.13
2019-05-06T00:28:44.734Z,18.12
2019-05-06T00:31:18.909Z,18.12
2019-05-06T00:33:53.834Z,18.18
2019-05-06T00:36:25.933Z,18.26
2019-05-06T00:39:01.684Z,18.26
2019-05-06T00:41:36.474Z,18.32
2019-05-06T00:44:06.716Z,18.34
2019-05-06T00:46:37.965Z,18.25
2019-05-06T00:49:10.325Z,18.33
2019-05-06T00:51:45.894Z,18.27
2019-05-06T00:54:21.600Z,18.22
2019-05-06T00:56:54.338Z,18.30
2019-05-06T00:59:26.871Z,18.30
2019-05-06T01:01:58.873Z,18.32
2019-05-06T01:04:30.910Z,18.36
2019-05-06T01:07:03.908Z,18.32
2019-05-06T01:09:36.913Z,18.38
2019-05-06T01:12:10.542Z,18.37
2019-05-06T01:14:47.649Z,18.33
2019-05-06T01:17:19.665Z,18.33
2019-05-06T01:19:53.971Z,18.41
2019-05-06T01:22:26.098Z,18.43
2019-05-06T01:24:58.293Z,18.51
2019-05-06T01:27:30.608Z,18.35
2019-05-06T01:30:04.380Z,18.34
2019-05-06T01:32:37.318Z,18.34
2019-05-06T01:35:09.873Z,18.39
2019-05-06T01:37:44.293Z,18.37
2019-05-06T01:40:38.508Z,18.36
2019-05-06T01:43:18.324Z,18.33
2019-05-06T01:45:50.873Z,18.27
2019-05-06T01:48:41.833Z,18.32
2019-05-06T01:51:14.353Z,18.35
2019-05-06T01:53:47.101Z,18.46
2019-05-06T01:56:19.847Z,18.40
2019-05-06T01:58:53.596Z,18.44
2019-05-06T02:01:25.202Z,18.47
2019-05-06T02:03:57.848Z,18.30
2019-05-06T02:06:29.884Z,18.23
2019-05-06T02:09:01.872Z,18.39
2019-05-06T02:11:34.094Z,18.44
2019-05-06T02:14:06.837Z,18.45
2019-05-06T02:16:39.331Z,18.42
2019-05-06T02:19:11.875Z,18.41
2019-05-06T02:22:13.682Z,18.42
2019-05-06T02:24:49.701Z,18.48
2019-05-06T02:27:20.724Z,18.37
2019-05-06T02:29:57.296Z,18.37
2019-05-06T02:32:45.379Z,18.20
2019-05-06T02:35:26.606Z,18.32
2019-05-06T02:37:57.826Z,18.29
2019-05-06T02:40:33.203Z,18.23
2019-05-06T02:43:05.837Z,18.22
2019-05-06T02:45:37.866Z,18.27
2019-05-06T02:48:19.324Z,18.33
2019-05-06T02:51:09.601Z,18.28
2019-05-06T02:53:42.881Z,18.10
2019-05-06T02:56:15.848Z,18.10
2019-05-06T02:58:48.321Z,18.23
2019-05-06T03:01:23.398Z,18.27
2019-05-06T03:03:54.329Z,18.27
2019-05-06T03:06:26.923Z,18.23
2019-05-06T03:08:59.545Z,18.18
2019-05-06T03:11:33.183Z,18.26
2019-05-06T03:14:05.891Z,18.26
2019-05-06T03:16:37.850Z,18.25
2019-05-06T03:19:13.318Z,18.11
2019-05-06T03:22:07.353Z,18.13
2019-05-06T03:25:07.886Z,18.18
2019-05-06T03:27:39.865Z,18.19
2019-05-06T03:30:16.381Z,18.14
2019-05-06T03:33:20.360Z,18.22
2019-05-06T03:35:36.082Z,18.19
2019-05-06T03:37:54.876Z,18.12
2019-05-06T03:40:27.314Z,18.12
2019-05-06T03:43:02.504Z,18.29
2019-05-06T03:45:45.315Z,18.16
2019-05-06T03:48:23.959Z,18.22
2019-05-06T03:50:56.497Z,18.29
2019-05-06T03:53:33.398Z,18.11
2019-05-06T03:56:05.315Z,18.11
2019-05-06T03:58:39.315Z,18.23
2019-05-06T04:01:13.169Z,18.13
2019-05-06T04:03:51.555Z,18.16
2019-05-06T04:06:19.589Z,18.03
2019-05-06T04:08:53.006Z,18.02
2019-05-06T04:11:25.878Z,18.02
2019-05-06T04:13:57.849Z,18.11
2019-05-06T04:16:45.571Z,18.19
2019-05-06T04:19:36.584Z,18.04
2019-05-06T04:22:17.139Z,18.04
2019-05-06T04:25:07.397Z,18.03
2019-05-06T04:28:33.942Z,18.04
2019-05-06T04:31:04.306Z,17.98
2019-05-06T04:33:36.369Z,17.98
2019-05-06T04:36:08.060Z,18.03
2019-05-06T04:38:39.785Z,18.05
2019-05-06T04:41:13.668Z,18.04
2019-05-06T04:43:44.752Z,17.99
2019-05-06T04:46:16.883Z,17.99
2019-05-06T04:48:48.758Z,17.95
2019-05-06T04:51:19.576Z,17.97
2019-05-06T04:53:53.677Z,17.87
2019-05-06T04:56:25.339Z,17.87
2019-05-06T04:58:57.072Z,17.85
2019-05-06T05:01:29.136Z,17.93
2019-05-06T05:04:03.303Z,17.98
2019-05-06T05:06:34.293Z,18.02
2019-05-06T05:09:06.745Z,17.97
2019-05-06T05:12:02.746Z,17.98
2019-05-06T05:14:52.050Z,17.96
2019-05-06T05:17:52.574Z,18.04
2019-05-06T05:20:36.502Z,18.04
2019-05-06T05:22:57.803Z,18.01
2019-05-06T05:25:29.807Z,17.96
2019-05-06T05:28:02.199Z,18.00
2019-05-06T05:30:35.318Z,18.02
2019-05-06T05:33:07.812Z,18.09
2019-05-06T05:35:39.867Z,18.12
2019-05-06T05:38:13.095Z,18.15
2019-05-06T05:40:45.806Z,18.19
2019-05-06T05:43:42.301Z,18.41
2019-05-06T05:46:13.862Z,18.45
2019-05-06T05:49:14.046Z,18.50
2019-05-06T05:51:46.049Z,18.61
2019-05-06T05:54:18.324Z,18.63
2019-05-06T05:56:52.746Z,18.50
2019-05-06T05:59:24.879Z,18.61
2019-05-06T06:01:56.927Z,18.61
2019-05-06T06:04:29.375Z,18.66
2019-05-06T06:07:02.742Z,18.70
2019-05-06T06:09:41.912Z,18.78
2019-05-06T06:12:15.155Z,18.77
2019-05-06T06:14:56.318Z,18.75
2019-05-06T06:17:42.664Z,18.84
2019-05-06T06:20:32.727Z,18.89
2019-05-06T06:23:14.325Z,18.91
2019-05-06T06:25:46.807Z,18.95
2019-05-06T06:28:18.826Z,19.08
2019-05-06T06:31:03.448Z,19.06
2019-05-06T06:33:35.868Z,19.00
2019-05-06T06:36:24.113Z,19.05
2019-05-06T06:39:22.883Z,19.05
2019-05-06T06:41:54.870Z,19.17
2019-05-06T06:44:29.539Z,19.14
2019-05-06T06:47:02.177Z,19.16
2019-05-06T06:49:34.676Z,19.13
2019-05-06T06:52:11.110Z,19.16
2019-05-06T06:54:43.611Z,19.13
2019-05-06T06:57:33.916Z,19.15
2019-05-06T07:00:22.294Z,19.15
2019-05-06T07:03:21.746Z,19.18
2019-05-06T07:06:07.541Z,19.14
2019-05-06T07:08:39.828Z,19.15
2019-05-06T07:11:13.050Z,19.12
2019-05-06T07:13:55.889Z,19.13
2019-05-06T07:16:27.818Z,19.22
2019-05-06T07:19:02.969Z,19.26
2019-05-06T07:21:56.567Z,19.28
2019-05-06T07:24:29.100Z,19.37
2019-05-06T07:27:07.290Z,19.37
2019-05-06T07:29:47.734Z,19.43
2019-05-06T07:32:14.321Z,19.49
2019-05-06T07:34:46.911Z,19.40
2019-05-06T07:37:18.859Z,19.39
2019-05-06T07:39:52.865Z,19.42
2019-05-06T07:42:32.178Z,19.49
2019-05-06T07:45:17.542Z,19.36
2019-05-06T07:47:53.393Z,19.31
2019-05-06T07:50:25.829Z,19.31
2019-05-06T07:53:10.658Z,19.46
2019-05-06T07:55:42.804Z,19.50
2019-05-06T07:58:15.030Z,19.50
2019-05-06T08:00:47.330Z,19.51
2019-05-06T08:03:22.113Z,19.48
2019-05-06T08:05:58.389Z,19.56
2019-05-06T08:08:27.864Z,19.44
2019-05-06T08:10:59.898Z,19.44
2019-05-06T08:13:32.422Z,19.51
2019-05-06T08:16:04.964Z,19.44
2019-05-06T08:18:39.283Z,19.51
2019-05-06T08:21:22.366Z,19.42
2019-05-06T08:23:54.901Z,19.55
2019-05-06T08:26:27.313Z,19.54
2019-05-06T08:28:59.859Z,19.49
2019-05-06T08:31:32.785Z,19.40
2019-05-06T08:34:05.040Z,19.51
2019-05-06T08:36:54.685Z,19.60
2019-05-06T08:39:25.725Z,19.62
2019-05-06T08:41:57.919Z,19.58
2019-05-06T08:44:32.121Z,19.66
2019-05-06T08:47:04.346Z,19.63
2019-05-06T08:49:55.074Z,19.63
2019-05-06T08:52:32.520Z,19.66
2019-05-06T08:55:04.971Z,19.63
2019-05-06T08:57:36.919Z,19.63
2019-05-06T09:00:08.878Z,19.60
2019-05-06T09:02:42.519Z,19.66
2019-05-06T09:05:14.882Z,19.77
2019-05-06T09:07:47.755Z,19.77
2019-05-06T09:10:18.719Z,19.72
2019-05-06T09:12:52.499Z,19.72
2019-05-06T09:15:24.850Z,19.74
2019-05-06T09:17:56.849Z,19.75
2019-05-06T09:20:28.891Z,19.71
2019-05-06T09:23:04.530Z,19.61
2019-05-06T09:25:36.068Z,19.62
2019-05-06T09:28:17.097Z,19.62
2019-05-06T09:30:57.470Z,19.61
2019-05-06T09:33:35.669Z,19.65
2019-05-06T09:36:06.716Z,19.73
2019-05-06T09:38:37.726Z,19.75
2019-05-06T09:41:09.092Z,19.74
2019-05-06T09:43:43.315Z,19.69
2019-05-06T09:46:15.322Z,19.66
2019-05-06T09:49:12.819Z,19.51
2019-05-06T09:51:45.024Z,19.55
2019-05-06T09:54:42.807Z,19.48
2019-05-06T09:57:23.288Z,19.44
2019-05-06T09:59:56.022Z,19.41
2019-05-06T10:02:28.095Z,19.42
2019-05-06T10:05:03.342Z,19.36
2019-05-06T10:07:35.001Z,19.39
2019-05-06T10:10:07.456Z,19.38
2019-05-06T10:12:41.951Z,19.37
2019-05-06T10:15:14.063Z,19.27
2019-05-06T10:17:47.687Z,19.26
2019-05-06T10:20:22.198Z,19.36
2019-05-06T10:22:53.891Z,19.33
2019-05-06T10:25:25.905Z,19.33
2019-05-06T10:28:02.603Z,19.38
2019-05-06T10:30:34.081Z,19.38
2019-05-06T10:33:09.548Z,19.33
2019-05-06T10:35:42.825Z,19.42
2019-05-06T10:38:52.842Z,19.40
2019-05-06T10:41:27.867Z,19.46
2019-05-06T10:44:36.308Z,19.58
2019-05-06T10:47:08.473Z,19.62
2019-05-06T10:49:42.109Z,19.64
2019-05-06T10:52:28.680Z,19.64
2019-05-06T10:55:03.318Z,19.74
2019-05-06T10:57:43.152Z,19.74
2019-05-06T11:00:15.322Z,19.75
2019-05-06T11:03:08.402Z,19.80
2019-05-06T11:05:42.934Z,19.77
2019-05-06T11:08:15.006Z,19.74
2019-05-06T11:10:46.988Z,19.74
2019-05-06T11:13:19.432Z,19.76
2019-05-06T11:15:52.871Z,19.79
2019-05-06T11:18:26.029Z,19.82
2019-05-06T11:20:58.312Z,19.82
2019-05-06T11:23:30.869Z,19.86
2019-05-06T11:26:03.176Z,19.86
2019-05-06T11:28:55.922Z,19.85
2019-05-06T11:31:46.461Z,19.88
2019-05-06T11:34:42.089Z,19.95
2019-05-06T11:37:23.513Z,19.92
2019-05-06T11:39:55.877Z,19.90
2019-05-06T11:42:32.506Z,19.90
2019-05-06T11:45:03.001Z,19.96
2019-05-06T11:47:35.293Z,19.97
2019-05-06T11:50:09.565Z,19.95
2019-05-06T11:52:43.454Z,19.83
2019-05-06T11:55:27.998Z,19.83
2019-05-06T11:57:47.947Z,19.87
2019-05-06T12:00:23.970Z,20.04
2019-05-06T12:02:56.331Z,20.07
2019-05-06T12:05:28.868Z,20.04
2019-05-06T12:08:08.223Z,20.00
2019-05-06T12:10:39.396Z,20.06
2019-05-06T12:13:12.226Z,20.06
2019-05-06T12:15:45.353Z,19.98
2019-05-06T12:18:17.886Z,19.97
2019-05-06T12:20:52.586Z,19.94
2019-05-06T12:23:23.928Z,19.87
2019-05-06T12:25:56.291Z,19.87
2019-05-06T12:28:28.833Z,20.05
2019-05-06T12:31:01.332Z,20.11
2019-05-06T12:33:44.339Z,20.13
2019-05-06T12:36:24.845Z,20.08
2019-05-06T12:39:17.546Z,20.13
2019-05-06T12:42:07.797Z,20.08
2019-05-06T12:44:41.854Z,19.97
2019-05-06T12:47:48.569Z,20.00
2019-05-06T12:50:22.716Z,20.07
2019-05-06T12:52:57.747Z,20.07
2019-05-06T12:55:28.827Z,20.11
2019-05-06T12:58:02.931Z,20.11
2019-05-06T13:00:35.292Z,20.11
2019-05-06T13:03:07.804Z,20.13
2019-05-06T13:05:39.815Z,20.03
2019-05-06T13:08:18.974Z,19.95
2019-05-06T13:10:45.905Z,19.99
2019-05-06T13:13:18.155Z,20.02
2019-05-06T13:15:52.776Z,20.02
2019-05-06T13:18:25.041Z,20.03
2019-05-06T13:20:57.874Z,20.03
2019-05-06T13:23:48.801Z,20.01
2019-05-06T13:26:23.867Z,20.03
2019-05-06T13:28:59.706Z,20.03
2019-05-06T13:31:32.600Z,20.07
2019-05-06T13:34:23.647Z,20.11
2019-05-06T13:36:55.875Z,20.05
2019-05-06T13:39:27.978Z,20.05
2019-05-06T13:42:00.477Z,20.01
2019-05-06T13:44:32.838Z,20.01
2019-05-06T13:47:05.347Z,20.00
2019-05-06T13:50:02.926Z,19.92
2019-05-06T13:52:42.405Z,19.94
2019-05-06T13:55:14.853Z,19.92
2019-05-06T13:57:46.860Z,19.87
2019-05-06T14:00:22.557Z,19.83
2019-05-06T14:02:57.683Z,19.85
2019-05-06T14:05:28.768Z,19.81
2019-05-06T14:08:04.220Z,20.08
2019-05-06T14:10:35.037Z,20.69
2019-05-06T14:13:08.325Z,20.69
2019-05-06T14:15:42.104Z,20.92
2019-05-06T14:18:14.855Z,21.20
2019-05-06T14:20:47.314Z,21.48
2019-05-06T14:23:22.045Z,21.47
2019-05-06T14:26:12.938Z,21.44
2019-05-06T14:28:55.332Z,21.44
2019-05-06T14:31:32.518Z,21.54
2019-05-06T14:34:04.468Z,21.52
2019-05-06T14:36:36.844Z,21.49
2019-05-06T14:39:17.069Z,21.54
2019-05-06T14:41:53.429Z,21.57
2019-05-06T14:44:25.824Z,21.44
2019-05-06T14:47:03.679Z,21.44
2019-05-06T14:49:34.726Z,21.51
2019-05-06T14:52:07.318Z,21.51
2019-05-06T14:54:54.346Z,21.46
2019-05-06T14:57:27.661Z,21.37
2019-05-06T14:59:59.926Z,21.13
2019-05-06T15:02:33.814Z,21.13
2019-05-06T15:05:06.275Z,21.03
2019-05-06T15:07:38.868Z,21.03
2019-05-06T15:10:20.451Z,21.13
2019-05-06T15:12:46.319Z,21.07
2019-05-06T15:15:18.898Z,21.03
2019-05-06T15:17:54.539Z,20.99
2019-05-06T15:20:28.385Z,21.00
2019-05-06T15:23:04.127Z,20.98
2019-05-06T15:25:33.097Z,20.93
2019-05-06T15:28:05.990Z,20.83
2019-05-06T15:30:55.332Z,20.74
2019-05-06T15:33:33.331Z,20.61
2019-05-06T15:36:16.376Z,20.52
2019-05-06T15:38:48.858Z,20.49
2019-05-06T15:41:22.301Z,20.42
2019-05-06T15:43:55.005Z,20.39
2019-05-06T15:46:27.905Z,20.35
2019-05-06T15:49:02.827Z,20.33
2019-05-06T15:51:38.288Z,20.21
2019-05-06T15:54:11.549Z,20.40
2019-05-06T15:56:44.022Z,20.38
2019-05-06T15:59:16.829Z,20.38
2019-05-06T16:01:49.341Z,20.36
2019-05-06T16:04:22.942Z,20.31
2019-05-06T16:06:55.473Z,20.32
2019-05-06T16:09:28.372Z,20.36
2019-05-06T16:12:02.973Z,20.32
2019-05-06T16:14:35.130Z,20.26
2019-05-06T16:17:08.369Z,20.27
2019-05-06T16:19:42.734Z,20.25
2019-05-06T16:22:14.978Z,20.21
2019-05-06T16:24:53.104Z,20.17
2019-05-06T16:27:25.874Z,20.22
2019-05-06T16:29:58.883Z,20.19
2019-05-06T16:32:33.180Z,20.19
2019-05-06T16:35:03.685Z,20.16
2019-05-06T16:37:37.446Z,20.13
2019-05-06T16:40:12.231Z,20.08
2019-05-06T16:42:46.067Z,20.04
2019-05-06T16:45:18.819Z,20.08
2019-05-06T16:47:52.388Z,20.08
2019-05-06T16:50:29.602Z,20.02
2019-05-06T16:53:02.730Z,20.02
2019-05-06T16:55:56.460Z,20.02
2019-05-06T16:58:32.371Z,20.08
2019-05-06T17:01:05.009Z,20.04
2019-05-06T17:03:55.777Z,20.01
2019-05-06T17:06:33.879Z,19.97
2019-05-06T17:09:18.347Z,19.89
2019-05-06T17:11:43.100Z,19.70
2019-05-06T17:14:15.865Z,19.85
2019-05-06T17:16:47.877Z,20.16
2019-05-06T17:19:20.328Z,20.42
2019-05-06T17:21:53.342Z,20.54
2019-05-06T17:24:25.864Z,20.66
2019-05-06T17:26:58.337Z,20.70
2019-05-06T17:29:53.348Z,20.69
2019-05-06T17:32:33.876Z,20.72
2019-05-06T17:35:06.898Z,20.69
2019-05-06T17:37:58.351Z,20.71
2019-05-06T17:40:32.701Z,20.68
2019-05-06T17:43:05.044Z,20.60
2019-05-06T17:45:58.326Z,20.60
2019-05-06T17:48:55.368Z,20.50
2019-05-06T17:51:33.808Z,20.45
2019-05-06T17:54:07.407Z,20.35
2019-05-06T17:56:41.789Z,20.29
2019-05-06T17:59:13.932Z,20.12
2019-05-06T18:01:49.331Z,20.12
2019-05-06T18:04:22.734Z,20.08
2019-05-06T18:06:55.829Z,20.01
2019-05-06T18:09:27.846Z,20.04
2019-05-06T18:12:00.907Z,19.95
2019-05-06T18:14:33.881Z,20.15
2019-05-06T18:17:05.898Z,20.15
2019-05-06T18:19:38.879Z,20.08
2019-05-06T18:22:12.975Z,20.18
2019-05-06T18:24:44.279Z,20.22
2019-05-06T18:27:16.864Z,20.16
2019-05-06T18:29:48.867Z,20.17
2019-05-06T18:32:23.399Z,20.07
2019-05-06T18:34:55.807Z,20.09
2019-05-06T18:37:28.320Z,19.95
2019-05-06T18:40:01.335Z,19.94
2019-05-06T18:42:34.450Z,19.95
2019-05-06T18:45:08.809Z,19.92
2019-05-06T18:47:42.249Z,19.89
2019-05-06T18:50:14.904Z,19.87
2019-05-06T18:52:47.864Z,19.81
2019-05-06T18:55:22.304Z,19.77
2019-05-06T18:57:55.575Z,19.83
2019-05-06T19:00:28.323Z,19.76
2019-05-06T19:03:02.714Z,19.76
2019-05-06T19:05:39.444Z,19.73
2019-05-06T19:08:21.970Z,19.76
2019-05-06T19:10:54.882Z,19.66
2019-05-06T19:13:26.831Z,19.70
2019-05-06T19:15:59.100Z,19.66
2019-05-06T19:18:32.332Z,19.68
2019-05-06T19:21:05.124Z,19.62
2019-05-06T19:23:37.367Z,19.67
2019-05-06T19:26:12.213Z,19.66
2019-05-06T19:28:43.147Z,19.65
2019-05-06T19:31:18.089Z,19.59
2019-05-06T19:33:52.607Z,19.60
2019-05-06T19:36:24.880Z,19.55
2019-05-06T19:38:57.062Z,19.55
2019-05-06T19:41:29.363Z,19.56
2019-05-06T19:44:02.202Z,19.57
2019-05-06T19:46:34.879Z,19.50
2019-05-06T19:49:07.860Z,19.45
2019-05-06T19:51:39.840Z,19.55
2019-05-06T19:54:12.627Z,19.41
2019-05-06T19:56:44.888Z,19.39
2019-05-06T19:59:16.856Z,19.46
2019-05-06T20:01:49.330Z,19.42
2019-05-06T20:04:22.811Z,19.39
2019-05-06T20:07:06.718Z,19.36
2019-05-06T20:09:54.539Z,19.40
2019-05-06T20:12:40.396Z,19.43
2019-05-06T20:15:30.493Z,19.43
2019-05-06T20:18:03.152Z,19.44
2019-05-06T20:20:35.852Z,19.46
2019-05-06T20:23:08.098Z,19.44
2019-05-06T20:25:42.584Z,19.44
2019-05-06T20:28:14.183Z,19.38
2019-05-06T20:30:46.528Z,19.35
2019-05-06T20:33:18.826Z,19.41
2019-05-06T20:35:52.553Z,19.43
2019-05-06T20:38:25.333Z,19.41
2019-05-06T20:40:57.869Z,19.35
2019-05-06T20:43:32.308Z,19.27
2019-05-06T20:46:04.332Z,19.29
2019-05-06T20:48:36.935Z,19.31
2019-05-06T20:51:08.847Z,19.34
2019-05-06T20:53:42.983Z,19.25
2019-05-06T20:56:14.834Z,19.32
2019-05-06T20:58:46.829Z,19.32
2019-05-06T21:01:18.859Z,19.33
2019-05-06T21:03:52.725Z,19.29
2019-05-06T21:06:24.280Z,19.22
2019-05-06T21:08:56.284Z,19.30
2019-05-06T21:11:29.356Z,19.27
2019-05-06T21:14:02.315Z,19.27
2019-05-06T21:16:34.869Z,19.27
2019-05-06T21:19:06.837Z,19.27
2019-05-06T21:21:38.929Z,19.21
2019-05-06T21:24:12.921Z,19.14
2019-05-06T21:26:50.548Z,19.10
2019-05-06T21:29:24.816Z,19.10
2019-05-06T21:31:56.835Z,19.12
2019-05-06T21:34:29.003Z,19.01
2019-05-06T21:37:03.299Z,18.96
2019-05-06T21:39:35.913Z,18.94
2019-05-06T21:42:08.073Z,18.89
2019-05-06T21:44:42.825Z,18.82
2019-05-06T21:47:14.845Z,18.86
2019-05-06T21:49:47.043Z,18.88
2019-05-06T21:52:19.104Z,18.84
2019-05-06T21:54:52.540Z,18.84
2019-05-06T21:57:23.703Z,18.81
2019-05-06T21:59:54.697Z,18.88
2019-05-06T22:02:26.290Z,18.88
2019-05-06T22:05:02.663Z,18.80
2019-05-06T22:07:35.867Z,18.72
2019-05-06T22:10:08.884Z,18.74
2019-05-06T22:12:43.378Z,18.73
2019-05-06T22:15:15.323Z,18.76
2019-05-06T22:17:49.395Z,18.78
2019-05-06T22:20:23.736Z,18.68
2019-05-06T22:22:55.921Z,18.68
2019-05-06T22:25:28.337Z,18.68
2019-05-06T22:28:02.369Z,18.71
2019-05-06T22:30:34.862Z,18.65
2019-05-06T22:33:06.936Z,18.59
2019-05-06T22:35:38.928Z,18.58
2019-05-06T22:38:12.337Z,18.54
2019-05-06T22:40:45.033Z,18.51
2019-05-06T22:43:17.340Z,18.58
2019-05-06T22:45:49.851Z,18.58
2019-05-06T22:48:23.628Z,18.65
2019-05-06T22:50:55.888Z,18.44
2019-05-06T22:53:27.819Z,18.44
2019-05-06T22:56:02.653Z,18.54
2019-05-06T22:58:34.882Z,18.56
2019-05-06T23:01:13.043Z,18.53
2019-05-06T23:03:46.630Z,18.58
2019-05-06T23:06:19.185Z,18.49
2019-05-06T23:08:56.220Z,18.49
2019-05-06T23:11:28.834Z,18.49
2019-05-06T23:14:02.736Z,18.59
2019-05-06T23:16:35.022Z,18.62
2019-05-06T23:19:08.329Z,18.53
2019-05-06T23:21:43.098Z,18.46
2019-05-06T23:24:14.909Z,18.45
2019-05-06T23:26:46.891Z,18.45
2019-05-06T23:29:18.894Z,18.42
2019-05-06T23:31:52.107Z,18.47
2019-05-06T23:34:25.337Z,18.48
2019-05-06T23:37:23.827Z,18.43
2019-05-06T23:41:09.077Z,18.34
2019-05-06T23:44:54.759Z,18.32
2019-05-06T23:48:40.362Z,18.30
2019-05-06T23:52:25.882Z,18.18
2019-05-06T23:56:10.684Z,18.22
2019-05-06T23:58:43.503Z,18.27
